Time;durP1;ratioP1;P1;durP2;ratioP2;P2;SDS_P1;SDS_P2;PMS_P1;PMS_P2;Temp;Humidity;BMP_temperature;BMP_pressure;BME280_temperature;BME280_humidity;BME280_pressure;Samples;Min_cycle;Max_cycle;Signal;HPM_P1;HPM_P2
2023/08/06 00:00:03;;;;;;;0.73;0.68;;;;;;;18.41;86.69;98657.44;338528;28;5224;-66
2023/08/06 00:00:15;;;;;;;0.70;0.63;;;;;;;18.40;86.68;98655.75;336507;28;17016;-67
2023/08/06 00:00:28;;;;;;;0.90;0.60;;;;;;;18.40;86.55;98658.38;339573;28;5222;-67
2023/08/06 00:00:41;;;;;;;1.90;0.75;;;;;;;18.42;86.59;98656.47;326975;28;17418;-67
2023/08/06 00:00:53;;;;;;;1.73;0.70;;;;;;;18.44;86.40;98661.59;336471;28;5112;-67
2023/08/06 00:01:05;;;;;;;0.70;0.70;;;;;;;18.43;86.21;98657.28;333980;28;5418;-67
2023/08/06 00:01:21;;;;;;;0.90;0.77;;;;;;;18.43;86.23;98659.91;338402;28;4560;-67
2023/08/06 00:01:33;;;;;;;0.82;0.68;;;;;;;18.43;86.02;98657.28;335876;28;18192;-67
2023/08/06 00:01:46;;;;;;;0.80;0.70;;;;;;;18.43;86.11;98654.66;334832;28;18062;-67
2023/08/06 00:01:58;;;;;;;0.80;0.70;;;;;;;18.43;86.00;98654.66;337398;28;5389;-67
2023/08/06 00:02:10;;;;;;;0.70;0.60;;;;;;;18.42;86.11;98653.00;337224;28;4679;-67
2023/08/06 00:02:22;;;;;;;0.70;0.60;;;;;;;18.43;86.36;98652.03;329660;28;18146;-67
2023/08/06 00:02:34;;;;;;;0.88;0.70;;;;;;;18.44;86.47;98661.59;338504;28;4629;-67
2023/08/06 00:02:46;;;;;;;0.93;0.82;;;;;;;18.44;86.56;98656.34;336081;28;16024;-67
2023/08/06 00:02:58;;;;;;;0.77;0.75;;;;;;;18.45;86.38;98653.59;338642;28;4779;-67
2023/08/06 00:03:10;;;;;;;0.65;0.65;;;;;;;18.46;86.45;98654.44;338776;28;5209;-67
2023/08/06 00:03:22;;;;;;;0.50;0.50;;;;;;;18.45;86.47;98658.84;336660;28;18184;-67
2023/08/06 00:03:34;;;;;;;0.63;0.63;;;;;;;18.45;86.24;98658.84;340137;28;5192;-67
2023/08/06 00:03:46;;;;;;;1.90;0.80;;;;;;;18.45;86.13;98658.00;337389;28;17410;-67
2023/08/06 00:03:59;;;;;;;1.90;0.77;;;;;;;18.44;86.38;98664.25;340014;28;5331;-67
2023/08/06 00:04:11;;;;;;;0.75;0.57;;;;;;;18.42;86.62;98653.00;337592;28;18180;-67
2023/08/06 00:04:24;;;;;;;1.00;0.70;;;;;;;18.41;86.63;98654.81;339150;28;4905;-67
2023/08/06 00:04:35;;;;;;;3.55;0.90;;;;;;;18.41;86.69;98657.44;337423;28;11133;-67
2023/08/06 00:04:47;;;;;;;3.42;0.90;;;;;;;18.40;86.60;98652.28;340228;28;5303;-67
2023/08/06 00:04:59;;;;;;;0.60;0.52;;;;;;;18.40;86.53;98660.19;340035;28;4512;-67
2023/08/06 00:05:12;;;;;;;0.60;0.60;;;;;;;18.36;86.77;98657.78;336569;28;11845;-67
2023/08/06 00:05:24;;;;;;;0.80;0.80;;;;;;;18.38;86.44;98656.84;336110;28;18063;-67
2023/08/06 00:05:36;;;;;;;0.77;0.75;;;;;;;18.38;86.52;98662.09;338780;28;5424;-67
2023/08/06 00:05:48;;;;;;;0.80;0.75;;;;;;;18.34;86.60;98657.06;337945;28;17629;-67
2023/08/06 00:06:00;;;;;;;0.85;0.68;;;;;;;18.35;86.30;98650.88;338654;28;5150;-67
2023/08/06 00:06:12;;;;;;;0.88;0.70;;;;;;;18.29;87.07;98654.00;335204;28;9630;-67
2023/08/06 00:06:24;;;;;;;0.68;0.60;;;;;;;18.26;87.45;98656.84;338365;28;4466;-67
2023/08/06 00:06:36;;;;;;;0.70;0.70;;;;;;;18.24;87.61;98650.88;330120;28;5486;-67
2023/08/06 00:06:49;;;;;;;0.70;0.70;;;;;;;18.25;87.68;98656.97;337649;28;5176;-67
2023/08/06 00:07:00;;;;;;;0.70;0.70;;;;;;;18.24;87.31;98660.56;337857;28;5435;-67
2023/08/06 00:07:12;;;;;;;0.80;0.70;;;;;;;18.24;86.93;98656.16;333699;28;18242;-67
2023/08/06 00:07:25;;;;;;;1.10;0.70;;;;;;;18.24;87.02;98657.94;336692;28;5288;-67
2023/08/06 00:07:37;;;;;;;1.20;0.70;;;;;;;18.23;87.44;98656.25;335795;28;17753;-67
2023/08/06 00:07:49;;;;;;;0.90;0.70;;;;;;;18.26;87.14;98653.41;336959;28;4514;-67
2023/08/06 00:08:02;;;;;;;0.70;0.70;;;;;;;18.27;86.90;98655.91;339777;28;6123;-67
2023/08/06 00:08:14;;;;;;;0.80;0.80;;;;;;;18.28;86.75;98656.75;329396;28;18397;-67
2023/08/06 00:08:26;;;;;;;1.85;0.80;;;;;;;18.28;86.83;98654.94;339799;28;4978;-67
2023/08/06 00:08:38;;;;;;;1.60;0.70;;;;;;;18.29;86.86;98659.25;337671;28;18933;-67
2023/08/06 00:08:50;;;;;;;0.90;0.60;;;;;;;18.28;87.07;98659.38;339574;28;6731;-67
2023/08/06 00:09:03;;;;;;;1.52;0.70;;;;;;;18.25;87.12;98660.47;336659;28;5257;-67
2023/08/06 00:09:15;;;;;;;2.03;0.80;;;;;;;18.24;87.26;98661.41;340039;28;5321;-67
2023/08/06 00:09:27;;;;;;;1.83;0.70;;;;;;;18.24;87.35;98656.16;339049;28;4795;-67
2023/08/06 00:09:39;;;;;;;0.98;0.60;;;;;;;18.22;87.55;98652.81;337050;28;16108;-67
2023/08/06 00:09:51;;;;;;;1.25;0.60;;;;;;;18.22;87.56;98658.06;339467;28;4503;-67
2023/08/06 00:10:03;;;;;;;1.48;0.70;;;;;;;18.24;87.53;98650.88;336638;28;16313;-67
2023/08/06 00:10:16;;;;;;;1.25;0.73;;;;;;;18.24;87.17;98653.50;339580;28;4583;-66
2023/08/06 00:10:28;;;;;;;0.70;0.70;;;;;;;18.23;87.27;98654.50;338037;28;4610;-67
2023/08/06 00:10:41;;;;;;;0.50;0.50;;;;;;;18.23;87.65;98648.38;339567;28;4516;-67
2023/08/06 00:10:53;;;;;;;0.55;0.55;;;;;;;18.21;87.79;98656.41;336582;28;18213;-67
2023/08/06 00:11:05;;;;;;;0.52;0.52;;;;;;;18.22;87.90;98659.88;331917;28;18313;-67
2023/08/06 00:11:17;;;;;;;0.50;0.50;;;;;;;18.21;87.74;98656.41;338895;28;5125;-67
2023/08/06 00:11:29;;;;;;;0.50;0.50;;;;;;;18.20;87.80;98653.91;331307;28;18287;-67
2023/08/06 00:11:43;;;;;;;0.57;0.57;;;;;;;18.20;87.85;98653.91;338812;28;4522;-67
2023/08/06 00:11:55;;;;;;;0.60;0.60;;;;;;;18.20;87.63;98657.34;336458;28;19125;-67
2023/08/06 00:12:07;;;;;;;0.80;0.80;;;;;;;18.20;87.55;98653.91;339932;28;4615;-67
2023/08/06 00:12:19;;;;;;;0.80;0.73;;;;;;;18.22;87.72;98658.06;336283;28;4563;-67
2023/08/06 00:12:32;;;;;;;1.10;0.80;;;;;;;18.22;87.69;98652.81;337679;28;6009;-67
2023/08/06 00:12:44;;;;;;;1.10;0.80;;;;;;;18.23;87.62;98654.50;336657;28;16271;-67
2023/08/06 00:12:56;;;;;;;1.42;0.80;;;;;;;18.24;87.53;98656.16;339134;28;5172;-67
2023/08/06 00:13:09;;;;;;;0.95;0.60;;;;;;;18.23;87.71;98654.50;337955;28;4647;-67
2023/08/06 00:13:21;;;;;;;0.50;0.50;;;;;;;18.23;87.58;98656.25;339791;28;5053;-67
2023/08/06 00:13:33;;;;;;;0.60;0.60;;;;;;;18.21;87.80;98651.16;339920;28;5238;-67
2023/08/06 00:13:45;;;;;;;2.40;0.80;;;;;;;18.22;87.80;98658.06;337210;28;17893;-67
2023/08/06 00:13:57;;;;;;;2.50;0.80;;;;;;;18.23;87.85;98649.22;336119;28;4685;-67
2023/08/06 00:14:09;;;;;;;0.93;0.70;;;;;;;18.23;87.86;98654.50;331190;28;5428;-67
2023/08/06 00:14:22;;;;;;;0.60;0.60;;;;;;;18.23;88.07;98654.50;339336;28;5207;-67
2023/08/06 00:14:34;;;;;;;0.73;0.57;;;;;;;18.23;87.19;98651.84;338962;28;4562;-67
2023/08/06 00:14:50;;;;;;;1.00;0.80;;;;;;;18.24;86.97;98650.88;335541;28;15543;-66
2023/08/06 00:15:03;;;;;;;0.80;0.80;;;;;;;18.24;86.92;98656.16;335441;28;16324;-67
2023/08/06 00:15:15;;;;;;;0.80;0.70;;;;;;;18.24;87.16;98656.16;333690;28;16536;-67
2023/08/06 00:15:27;;;;;;;0.80;0.60;;;;;;;18.25;87.21;98652.56;336861;28;4582;-67
2023/08/06 00:15:39;;;;;;;0.88;0.63;;;;;;;18.25;87.16;98657.84;338757;28;5320;-66
2023/08/06 00:15:51;;;;;;;0.93;0.70;;;;;;;18.26;87.16;98654.22;335741;28;18254;-67
2023/08/06 00:16:13;;;;;;;0.65;0.60;;;;;;;18.26;87.04;98656.84;337747;28;5425;-67
2023/08/06 00:16:26;;;;;;;1.15;0.57;;;;;;;18.27;86.78;98661.19;332586;28;17792;-67
2023/08/06 00:16:38;;;;;;;1.33;0.65;;;;;;;18.28;86.71;98654.94;337212;28;4520;-67
2023/08/06 00:16:50;;;;;;;1.50;0.80;;;;;;;18.27;86.76;98657.69;338342;28;4814;-66
2023/08/06 00:17:02;;;;;;;1.00;0.70;;;;;;;18.26;86.81;98653.41;333566;28;18497;-67
2023/08/06 00:17:14;;;;;;;0.95;0.60;;;;;;;18.26;86.86;98648.13;336703;28;5429;-67
2023/08/06 00:17:26;;;;;;;0.70;0.40;;;;;;;18.26;86.78;98656.84;335979;28;5428;-67
2023/08/06 00:17:39;;;;;;;0.80;0.50;;;;;;;18.27;86.59;98650.66;339901;28;4612;-67
2023/08/06 00:17:51;;;;;;;0.60;0.60;;;;;;;18.27;86.84;98650.66;335379;28;8647;-67
2023/08/06 00:18:03;;;;;;;0.60;0.60;;;;;;;18.29;86.77;98654.00;340004;28;5798;-67
2023/08/06 00:18:15;;;;;;;0.60;0.60;;;;;;;18.28;86.49;98649.69;339541;28;5234;-67
2023/08/06 00:18:27;;;;;;;0.75;0.60;;;;;;;18.29;86.42;98653.13;336461;28;18173;-67
2023/08/06 00:18:40;;;;;;;0.85;0.60;;;;;;;18.29;86.44;98648.72;339172;28;6283;-67
2023/08/06 00:18:52;;;;;;;1.15;0.70;;;;;;;18.27;86.59;98650.66;336211;28;18109;-67
2023/08/06 00:19:04;;;;;;;1.00;0.75;;;;;;;18.27;86.67;98653.28;340359;28;4560;-67
2023/08/06 00:19:16;;;;;;;0.70;0.70;;;;;;;18.26;86.87;98650.78;336722;28;15982;-67
2023/08/06 00:19:28;;;;;;;0.90;0.63;;;;;;;18.25;86.75;98649.09;339039;28;5499;-67
2023/08/06 00:19:40;;;;;;;1.88;0.90;;;;;;;18.24;86.92;98650.88;339012;28;4650;-67
2023/08/06 00:19:52;;;;;;;1.98;1.00;;;;;;;18.23;86.87;98641.34;333927;28;17946;-67
2023/08/06 00:20:06;;;;;;;1.65;0.93;;;;;;;18.23;86.86;98649.22;336668;28;17002;-67
2023/08/06 00:20:18;;;;;;;0.80;0.80;;;;;;;18.23;86.71;98646.59;334576;28;19182;-67
2023/08/06 00:20:30;;;;;;;1.40;1.00;;;;;;;18.24;86.51;98645.63;340551;28;4528;-67
2023/08/06 00:20:42;;;;;;;1.45;0.90;;;;;;;18.25;86.87;98646.44;336101;28;18199;-67
2023/08/06 00:20:54;;;;;;;1.10;0.75;;;;;;;18.25;86.74;98651.72;339728;28;5178;-67
2023/08/06 00:21:06;;;;;;;0.73;0.63;;;;;;;18.25;86.89;98641.19;340249;28;4556;-67
2023/08/06 00:21:18;;;;;;;0.90;0.65;;;;;;;18.23;86.50;98643.97;336696;28;18174;-67
2023/08/06 00:21:30;;;;;;;0.90;0.60;;;;;;;18.24;86.39;98645.63;339658;28;4697;-66
2023/08/06 00:21:42;;;;;;;0.90;0.60;;;;;;;18.21;86.38;98645.88;337138;28;18414;-67
2023/08/06 00:21:54;;;;;;;0.90;0.65;;;;;;;18.23;86.35;98643.09;339205;28;4552;-67
2023/08/06 00:22:06;;;;;;;1.10;0.80;;;;;;;18.22;86.75;98647.53;339226;28;4641;-67
2023/08/06 00:22:18;;;;;;;1.00;0.70;;;;;;;18.22;86.96;98642.28;337336;28;19161;-67
2023/08/06 00:22:35;;;;;;;0.95;0.70;;;;;;;18.24;86.93;98644.78;339923;28;4669;-66
2023/08/06 00:22:47;;;;;;;1.02;0.75;;;;;;;18.23;86.95;98643.97;337836;28;17694;-67
2023/08/06 00:22:59;;;;;;;0.93;0.80;;;;;;;18.24;86.78;98647.44;338430;28;17097;-67
2023/08/06 00:23:11;;;;;;;0.70;0.70;;;;;;;18.23;86.66;98643.97;341341;28;5502;-67
2023/08/06 00:23:23;;;;;;;1.00;0.70;;;;;;;18.23;87.07;98643.97;337059;28;18426;-67
2023/08/06 00:23:36;;;;;;;0.98;0.80;;;;;;;18.24;86.94;98644.78;339206;28;5441;-67
2023/08/06 00:23:48;;;;;;;1.17;0.85;;;;;;;18.23;86.84;98643.97;334698;28;17968;-67
2023/08/06 00:24:00;;;;;;;1.35;0.90;;;;;;;18.23;86.87;98648.38;338358;28;4523;-67
2023/08/06 00:24:12;;;;;;;1.35;0.80;;;;;;;18.21;86.97;98645.03;333077;28;11855;-67
2023/08/06 00:24:24;;;;;;;0.95;0.60;;;;;;;18.19;86.98;98653.06;336602;28;18389;-67
2023/08/06 00:24:36;;;;;;;1.05;0.50;;;;;;;18.16;86.93;98643.59;338645;28;5062;-67
2023/08/06 00:24:48;;;;;;;1.23;0.70;;;;;;;18.16;87.02;98648.03;333522;28;18534;-67
2023/08/06 00:25:01;;;;;;;1.35;0.70;;;;;;;18.15;87.46;98651.63;337300;28;4661;-67
2023/08/06 00:25:13;;;;;;;0.75;0.65;;;;;;;18.15;87.39;98646.38;331100;28;4595;-67
2023/08/06 00:25:25;;;;;;;0.63;0.55;;;;;;;18.15;87.31;98649.84;337305;28;4541;-67
2023/08/06 00:25:38;;;;;;;0.80;0.60;;;;;;;18.15;87.37;98652.47;337512;28;4659;-67
2023/08/06 00:25:50;;;;;;;0.98;0.65;;;;;;;18.16;87.26;98643.59;330866;28;19306;-67
2023/08/06 00:26:02;;;;;;;1.00;0.63;;;;;;;18.17;87.15;98647.09;338611;28;5595;-67
2023/08/06 00:26:14;;;;;;;0.90;0.60;;;;;;;18.18;87.17;98646.13;337142;28;12391;-67
2023/08/06 00:26:26;;;;;;;0.82;0.70;;;;;;;18.20;86.99;98643.38;340043;28;5429;-67
2023/08/06 00:26:38;;;;;;;0.90;0.70;;;;;;;18.20;86.79;98644.19;339842;28;8791;-67
2023/08/06 00:26:50;;;;;;;0.93;0.70;;;;;;;18.21;87.05;98651.16;336939;28;18239;-66
2023/08/06 00:27:03;;;;;;;0.80;0.68;;;;;;;18.23;87.19;98637.84;339726;28;5190;-67
2023/08/06 00:27:15;;;;;;;0.70;0.70;;;;;;;18.22;87.28;98642.28;337290;28;19322;-67
2023/08/06 00:27:27;;;;;;;0.70;0.70;;;;;;;18.22;87.38;98642.28;339499;28;4526;-67
2023/08/06 00:27:39;;;;;;;0.80;0.80;;;;;;;18.21;87.44;98640.63;337769;28;18039;-67
2023/08/06 00:27:51;;;;;;;0.70;0.70;;;;;;;18.24;87.42;98643.00;338809;28;4597;-67
2023/08/06 00:28:04;;;;;;;0.60;0.60;;;;;;;18.26;87.17;98645.50;337654;28;12311;-67
2023/08/06 00:28:16;;;;;;;0.55;0.50;;;;;;;18.26;87.17;98638.44;339265;28;4531;-67
2023/08/06 00:28:28;;;;;;;0.60;0.60;;;;;;;18.27;87.06;98644.53;339033;28;4582;-67
2023/08/06 00:28:40;;;;;;;1.08;0.70;;;;;;;18.28;87.02;98636.53;334920;28;17107;-67
2023/08/06 00:28:52;;;;;;;1.10;0.73;;;;;;;18.28;87.23;98639.16;336200;28;17205;-67
2023/08/06 00:29:04;;;;;;;0.70;0.70;;;;;;;18.29;87.47;98643.47;337681;28;4537;-67
2023/08/06 00:29:16;;;;;;;0.73;0.63;;;;;;;18.28;87.16;98636.53;333646;28;18412;-67
2023/08/06 00:29:28;;;;;;;0.80;0.75;;;;;;;18.28;87.61;98640.97;336803;28;4767;-66
2023/08/06 00:29:40;;;;;;;0.77;0.75;;;;;;;18.30;87.44;98636.41;335420;28;18048;-67
2023/08/06 00:29:53;;;;;;;1.00;0.90;;;;;;;18.31;87.25;98636.28;335822;28;19390;-66
2023/08/06 00:30:05;;;;;;;0.98;0.88;;;;;;;18.30;87.40;98639.88;337887;28;4573;-67
2023/08/06 00:30:18;;;;;;;0.90;0.77;;;;;;;18.33;87.40;98636.16;328745;28;18214;-67
2023/08/06 00:30:31;;;;;;;0.80;0.60;;;;;;;18.33;87.19;98634.38;337514;28;4629;-66
2023/08/06 00:30:43;;;;;;;0.88;0.60;;;;;;;18.35;87.18;98634.22;334221;28;17992;-67
2023/08/06 00:30:55;;;;;;;0.77;0.55;;;;;;;18.36;87.27;98638.53;336326;28;5331;-67
2023/08/06 00:31:07;;;;;;;0.98;0.75;;;;;;;18.38;87.06;98627.91;334507;28;19092;-67
2023/08/06 00:31:19;;;;;;;1.20;0.80;;;;;;;18.36;87.24;98631.47;337878;28;4662;-67
2023/08/06 00:31:32;;;;;;;0.95;0.70;;;;;;;18.37;87.22;98634.94;332613;28;18553;-67
2023/08/06 00:31:44;;;;;;;0.68;0.60;;;;;;;18.38;87.27;98625.28;337446;28;4557;-67
2023/08/06 00:31:56;;;;;;;0.60;0.60;;;;;;;18.40;87.08;98628.59;333796;28;7470;-67
2023/08/06 00:32:08;;;;;;;0.57;0.57;;;;;;;18.42;86.97;98629.31;339680;28;4516;-67
2023/08/06 00:32:21;;;;;;;0.57;0.57;;;;;;;18.44;86.92;98632.66;335218;28;5420;-67
2023/08/06 00:32:34;;;;;;;0.70;0.70;;;;;;;18.44;86.85;98624.78;329823;28;17895;-67
2023/08/06 00:32:46;;;;;;;1.17;0.75;;;;;;;18.44;86.79;98625.59;334780;28;11867;-67
2023/08/06 00:32:58;;;;;;;1.20;0.70;;;;;;;18.44;86.92;98624.78;335257;28;4564;-67
2023/08/06 00:33:10;;;;;;;0.68;0.60;;;;;;;18.47;86.88;98629.75;337429;28;7097;-67
2023/08/06 00:33:23;;;;;;;0.93;0.63;;;;;;;18.45;86.76;98627.28;334425;28;4670;-67
2023/08/06 00:33:36;;;;;;;1.02;0.70;;;;;;;18.47;86.61;98624.50;336384;28;4593;-67
2023/08/06 00:33:48;;;;;;;1.10;0.88;;;;;;;18.44;86.79;98625.59;336086;28;17925;-67
2023/08/06 00:34:00;;;;;;;0.70;0.70;;;;;;;18.43;86.71;98623.09;338443;28;4535;-67
2023/08/06 00:34:12;;;;;;;0.90;0.60;;;;;;;18.41;86.86;98625.88;335958;28;13021;-67
2023/08/06 00:34:24;;;;;;;1.27;0.68;;;;;;;18.42;86.85;98629.31;338723;28;5234;-66
2023/08/06 00:34:36;;;;;;;1.40;0.77;;;;;;;18.41;86.86;98620.59;332380;28;5112;-67
2023/08/06 00:34:49;;;;;;;1.08;0.80;;;;;;;18.42;86.76;98621.44;335636;28;18063;-67
2023/08/06 00:35:01;;;;;;;1.00;0.75;;;;;;;18.44;86.77;98625.59;339743;28;4573;-66
2023/08/06 00:35:13;;;;;;;1.20;0.82;;;;;;;18.44;86.65;98624.78;332173;28;17969;-66
2023/08/06 00:35:25;;;;;;;1.00;0.88;;;;;;;18.46;87.02;98622.84;340064;28;5542;-67
2023/08/06 00:35:37;;;;;;;1.05;0.82;;;;;;;18.45;87.06;98616.75;337013;28;18105;-67
2023/08/06 00:35:49;;;;;;;1.00;0.70;;;;;;;18.47;87.08;98621.88;339682;28;4645;-67
2023/08/06 00:36:01;;;;;;;0.80;0.50;;;;;;;18.45;86.54;98618.53;340005;28;5567;-67
2023/08/06 00:36:13;;;;;;;0.57;0.50;;;;;;;18.45;85.83;98621.16;336912;28;5298;-67
2023/08/06 00:36:25;;;;;;;0.57;0.57;;;;;;;18.45;86.07;98610.63;340403;28;4614;-67
2023/08/06 00:36:37;;;;;;;0.63;0.63;;;;;;;18.45;86.52;98616.75;339312;28;10857;-67
2023/08/06 00:36:49;;;;;;;0.60;0.60;;;;;;;18.47;86.04;98624.50;333556;28;17326;-67
2023/08/06 00:37:01;;;;;;;0.80;0.60;;;;;;;18.47;86.14;98620.09;339458;28;4661;-67
2023/08/06 00:37:13;;;;;;;0.85;0.70;;;;;;;18.50;86.10;98619.00;337919;28;5228;-67
2023/08/06 00:37:25;;;;;;;0.88;0.70;;;;;;;18.50;86.59;98619.00;340009;28;4499;-67
2023/08/06 00:37:37;;;;;;;0.93;0.80;;;;;;;18.49;86.87;98618.19;338504;28;5589;-67
2023/08/06 00:37:49;;;;;;;1.13;0.85;;;;;;;18.50;86.55;98625.09;336914;28;18344;-67
2023/08/06 00:38:02;;;;;;;0.90;0.65;;;;;;;18.49;86.49;98619.94;339908;28;4678;-67
2023/08/06 00:38:14;;;;;;;0.65;0.65;;;;;;;18.50;86.75;98619.84;337464;28;18047;-67
2023/08/06 00:38:26;;;;;;;0.60;0.60;;;;;;;18.51;86.60;98615.41;339113;28;4565;-67
2023/08/06 00:38:38;;;;;;;0.60;0.60;;;;;;;18.51;86.50;98615.41;336243;28;17930;-67
2023/08/06 00:38:50;;;;;;;0.77;0.63;;;;;;;18.51;86.63;98615.41;339360;28;5708;-67
2023/08/06 00:39:02;;;;;;;1.20;0.80;;;;;;;18.52;86.42;98619.72;337962;28;5404;-66
2023/08/06 00:39:14;;;;;;;1.10;0.77;;;;;;;18.52;86.38;98617.09;335788;28;19344;-67
2023/08/06 00:39:27;;;;;;;0.80;0.80;;;;;;;18.51;86.34;98620.66;339131;28;4748;-67
2023/08/06 00:39:39;;;;;;;0.80;0.75;;;;;;;18.50;86.44;98619.00;333814;28;8756;-67
2023/08/06 00:39:51;;;;;;;0.63;0.60;;;;;;;18.49;86.30;98612.06;335897;28;5111;-67
2023/08/06 00:40:04;;;;;;;0.63;0.63;;;;;;;18.50;86.12;98614.56;336746;28;4569;-67
2023/08/06 00:40:16;;;;;;;1.08;0.90;;;;;;;18.48;86.00;98615.66;333690;28;18278;-67
2023/08/06 00:40:30;;;;;;;1.17;0.90;;;;;;;18.48;85.99;98616.50;335904;28;5426;-67
2023/08/06 00:40:42;;;;;;;1.42;0.68;;;;;;;18.48;85.94;98627.00;333276;28;18240;-67
2023/08/06 00:40:54;;;;;;;1.50;0.57;;;;;;;18.50;85.91;98621.63;332875;28;16413;-67
2023/08/06 00:41:06;;;;;;;0.63;0.50;;;;;;;18.49;85.73;98617.31;338575;28;4876;-67
2023/08/06 00:41:18;;;;;;;0.77;0.68;;;;;;;18.49;85.59;98626.06;338619;28;5454;-67
2023/08/06 00:41:30;;;;;;;0.68;0.65;;;;;;;18.51;85.73;98623.28;337301;28;18111;-67
2023/08/06 00:41:42;;;;;;;0.73;0.63;;;;;;;18.50;85.50;98619.00;339314;28;4529;-67
2023/08/06 00:41:54;;;;;;;0.85;0.73;;;;;;;18.50;85.68;98624.28;339078;28;4647;-67
2023/08/06 00:42:06;;;;;;;0.85;0.77;;;;;;;18.50;85.60;98619.84;332061;28;19873;-67
2023/08/06 00:42:20;;;;;;;0.70;0.70;;;;;;;18.51;85.83;98618.88;338992;28;4542;-67
2023/08/06 00:42:32;;;;;;;0.60;0.60;;;;;;;18.51;86.25;98620.66;335767;28;18157;-67
2023/08/06 00:42:46;;;;;;;0.60;0.60;;;;;;;18.50;86.22;98616.38;336548;28;4634;-67
2023/08/06 00:42:58;;;;;;;0.70;0.70;;;;;;;18.51;85.44;98615.41;338998;28;4767;-67
2023/08/06 00:43:10;;;;;;;0.70;0.70;;;;;;;18.50;85.40;98616.38;336854;28;13011;-67
2023/08/06 00:43:22;;;;;;;0.70;0.60;;;;;;;18.51;85.69;98621.53;339266;28;4726;-67
2023/08/06 00:43:34;;;;;;;0.77;0.68;;;;;;;18.51;85.94;98620.66;338687;28;5215;-67
2023/08/06 00:43:46;;;;;;;1.02;0.90;;;;;;;18.52;85.49;98619.72;332243;28;18246;-67
2023/08/06 00:43:58;;;;;;;0.95;0.80;;;;;;;18.51;85.42;98621.53;339220;28;7107;-67
2023/08/06 00:44:10;;;;;;;0.82;0.80;;;;;;;18.52;85.55;98622.34;337754;28;13408;-67
2023/08/06 00:44:22;;;;;;;0.60;0.60;;;;;;;18.53;85.49;98622.22;339993;28;4659;-67
2023/08/06 00:44:34;;;;;;;0.50;0.50;;;;;;;18.53;85.52;98618.75;340192;28;4653;-66
2023/08/06 00:44:46;;;;;;;0.52;0.50;;;;;;;18.53;85.33;98618.75;336909;28;19063;-67
2023/08/06 00:44:58;;;;;;;0.70;0.60;;;;;;;18.53;85.24;98618.75;334873;28;4904;-67
2023/08/06 00:45:10;;;;;;;0.60;0.60;;;;;;;18.53;85.44;98618.75;340005;28;5769;-67
2023/08/06 00:45:22;;;;;;;0.52;0.52;;;;;;;18.53;85.55;98621.38;334438;28;19257;-67
2023/08/06 00:45:36;;;;;;;0.50;0.50;;;;;;;18.54;85.45;98620.41;338808;28;4596;-67
2023/08/06 00:45:48;;;;;;;0.50;0.50;;;;;;;18.53;85.16;98616.97;335029;28;18135;-66
2023/08/06 00:46:01;;;;;;;0.68;0.68;;;;;;;18.54;85.06;98613.34;336883;28;4748;-67
2023/08/06 00:46:14;;;;;;;0.70;0.70;;;;;;;18.54;85.12;98615.16;339208;28;5556;-67
2023/08/06 00:46:27;;;;;;;0.80;0.80;;;;;;;18.53;84.87;98618.75;339964;28;5027;-67
2023/08/06 00:46:39;;;;;;;0.75;0.70;;;;;;;18.52;85.09;98617.91;337575;28;18394;-67
2023/08/06 00:46:51;;;;;;;0.73;0.68;;;;;;;18.51;84.81;98616.25;338326;28;4552;-66
2023/08/06 00:47:04;;;;;;;0.60;0.60;;;;;;;18.52;85.23;98617.09;337342;28;18130;-67
2023/08/06 00:47:17;;;;;;;0.70;0.50;;;;;;;18.53;85.27;98624.00;338086;28;4566;-66
2023/08/06 00:47:29;;;;;;;0.80;0.60;;;;;;;18.54;85.03;98615.16;337335;28;13550;-67
2023/08/06 00:47:41;;;;;;;0.80;0.70;;;;;;;18.55;84.54;98616.81;340101;28;5390;-67
2023/08/06 00:47:54;;;;;;;0.95;0.70;;;;;;;18.53;83.93;98613.47;336494;28;18236;-67
2023/08/06 00:48:07;;;;;;;0.70;0.60;;;;;;;18.54;84.25;98612.53;339995;28;5219;-67
2023/08/06 00:48:20;;;;;;;0.50;0.50;;;;;;;18.53;84.60;98614.34;337312;28;17931;-67
2023/08/06 00:48:32;;;;;;;0.60;0.60;;;;;;;18.55;84.33;98619.44;337004;28;17959;-67
2023/08/06 00:48:44;;;;;;;0.65;0.65;;;;;;;18.55;84.76;98612.41;339952;28;4486;-67
2023/08/06 00:48:56;;;;;;;0.70;0.70;;;;;;;18.58;84.96;98619.22;335528;28;11513;-67
2023/08/06 00:49:09;;;;;;;0.73;0.73;;;;;;;18.58;84.66;98613.94;339985;28;4636;-67
2023/08/06 00:49:21;;;;;;;0.68;0.68;;;;;;;18.59;84.67;98618.22;339956;28;6109;-67
2023/08/06 00:49:36;;;;;;;1.90;0.80;;;;;;;18.57;84.51;98614.88;337160;28;19174;-67
2023/08/06 00:49:49;;;;;;;2.10;0.85;;;;;;;18.57;84.66;98620.16;337547;28;18228;-67
2023/08/06 00:50:01;;;;;;;1.08;0.70;;;;;;;18.55;84.44;98611.56;338885;28;4612;-67
2023/08/06 00:50:13;;;;;;;0.73;0.70;;;;;;;18.58;84.86;98624.47;337669;28;17912;-67
2023/08/06 00:50:26;;;;;;;0.70;0.65;;;;;;;18.56;84.91;98614.06;340344;28;4552;-67
2023/08/06 00:50:38;;;;;;;0.60;0.60;;;;;;;18.56;84.82;98618.50;336767;28;12853;-67
2023/08/06 00:50:50;;;;;;;0.52;0.52;;;;;;;18.56;84.78;98610.59;334880;28;4935;-67
2023/08/06 00:51:02;;;;;;;0.60;0.60;;;;;;;18.54;84.87;98610.72;340222;28;4520;-67
2023/08/06 00:51:15;;;;;;;0.90;0.60;;;;;;;18.54;84.97;98609.91;337036;28;18444;-67
2023/08/06 00:51:27;;;;;;;0.80;0.60;;;;;;;18.54;84.88;98616.00;338118;28;11879;-67
2023/08/06 00:51:40;;;;;;;1.05;0.65;;;;;;;18.54;84.90;98612.53;338391;28;18018;-67
2023/08/06 00:51:52;;;;;;;0.98;0.70;;;;;;;18.55;85.01;98614.19;339248;28;4680;-67
2023/08/06 00:52:06;;;;;;;1.00;0.73;;;;;;;18.56;85.00;98618.50;335734;28;18462;-67
2023/08/06 00:52:18;;;;;;;1.15;0.80;;;;;;;18.58;85.05;98618.38;339083;28;4680;-67
2023/08/06 00:52:31;;;;;;;0.98;0.80;;;;;;;18.56;85.19;98618.50;336443;28;18492;-66
2023/08/06 00:52:43;;;;;;;1.00;0.65;;;;;;;18.56;85.54;98613.22;339916;28;4518;-67
2023/08/06 00:52:55;;;;;;;0.77;0.50;;;;;;;18.52;85.99;98617.09;337185;28;16027;-67
2023/08/06 00:53:08;;;;;;;0.52;0.50;;;;;;;18.54;85.57;98616.00;340117;28;5113;-67
2023/08/06 00:53:20;;;;;;;0.60;0.60;;;;;;;18.56;85.50;98615.88;337649;28;16472;-67
2023/08/06 00:53:32;;;;;;;0.60;0.60;;;;;;;18.56;85.35;98618.50;340129;28;5531;-67
2023/08/06 00:53:44;;;;;;;0.50;0.50;;;;;;;18.57;85.17;98614.88;339117;28;5373;-66
2023/08/06 00:53:56;;;;;;;0.50;0.50;;;;;;;18.59;84.98;98618.22;336825;28;19066;-67
2023/08/06 00:54:09;;;;;;;0.50;0.50;;;;;;;18.58;85.04;98611.31;341054;28;5314;-67
2023/08/06 00:54:22;;;;;;;0.60;0.60;;;;;;;18.60;84.77;98613.81;338578;28;18127;-67
2023/08/06 00:54:35;;;;;;;0.98;0.70;;;;;;;18.60;84.74;98609.38;341286;28;5844;-67
2023/08/06 00:54:47;;;;;;;0.93;0.70;;;;;;;18.62;84.76;98615.38;338781;28;18404;-67
2023/08/06 00:54:59;;;;;;;0.80;0.70;;;;;;;18.61;84.99;98605.78;340119;28;4591;-66
2023/08/06 00:55:11;;;;;;;0.85;0.70;;;;;;;18.62;84.92;98614.53;338514;28;19105;-67
2023/08/06 00:55:23;;;;;;;1.08;0.70;;;;;;;18.63;85.27;98608.28;340826;28;4824;-67
2023/08/06 00:55:36;;;;;;;1.02;0.70;;;;;;;18.64;84.92;98616.06;341301;28;4575;-67
2023/08/06 00:55:48;;;;;;;0.88;0.65;;;;;;;18.64;84.82;98608.19;338664;28;18057;-67
2023/08/06 00:56:01;;;;;;;1.13;0.60;;;;;;;18.64;84.61;98610.81;338938;28;5990;-67
2023/08/06 00:56:14;;;;;;;1.00;0.63;;;;;;;18.64;84.61;98610.81;339076;28;17902;-67
2023/08/06 00:56:26;;;;;;;0.70;0.70;;;;;;;18.64;84.71;98613.44;336021;28;12036;-67
2023/08/06 00:56:38;;;;;;;0.98;0.70;;;;;;;18.66;84.78;98605.41;338620;28;4514;-67
2023/08/06 00:56:50;;;;;;;0.85;0.60;;;;;;;18.64;84.81;98602.91;334038;28;4699;-67
2023/08/06 00:57:04;;;;;;;0.70;0.50;;;;;;;18.66;84.34;98608.88;335847;28;18363;-67
2023/08/06 00:57:16;;;;;;;0.60;0.60;;;;;;;18.67;84.07;98609.72;336034;28;4667;-67
2023/08/06 00:57:28;;;;;;;0.90;0.70;;;;;;;18.68;84.08;98609.59;339026;28;5008;-67
2023/08/06 00:57:41;;;;;;;0.80;0.63;;;;;;;18.69;83.96;98608.63;336904;28;4633;-67
2023/08/06 00:57:56;;;;;;;0.60;0.60;;;;;;;18.69;84.01;98608.63;336384;28;17966;-67
2023/08/06 00:58:08;;;;;;;0.68;0.60;;;;;;;18.71;84.40;98611.97;330451;28;18120;-67
2023/08/06 00:58:21;;;;;;;0.60;0.60;;;;;;;18.71;83.95;98608.50;332542;28;4569;-67
2023/08/06 00:58:34;;;;;;;0.60;0.60;;;;;;;18.70;84.37;98607.66;334957;28;18362;-67
2023/08/06 00:58:47;;;;;;;0.55;0.50;;;;;;;18.72;84.32;98605.75;337568;28;4648;-67
2023/08/06 00:58:59;;;;;;;0.85;0.60;;;;;;;18.73;84.25;98604.78;332371;28;18346;-67
2023/08/06 00:59:11;;;;;;;1.40;0.70;;;;;;;18.73;84.20;98602.16;339036;28;4751;-67